TimeEST,TemperatureF,Dew PointF,Humidity,Sea Level PressureIn,VisibilityMPH,Wind Direction,Wind SpeedMPH,Gust SpeedMPH,PrecipitationIn,Events,Conditions,WindDirDegrees,DateUTC
12:15 AM,30.6,26.2,84,30.41,10.0,Calm,Calm,-,N/A,,Clear,0,2013-01-08 05:15:00
12:35 AM,29.1,25.3,86,30.39,10.0,NNE,5.8,-,N/A,,Clear,30,2013-01-08 05:35:00
12:55 AM,28.4,25.0,87,30.39,10.0,Calm,Calm,-,N/A,,Clear,0,2013-01-08 05:55:00
1:15 AM,29.1,25.5,86,30.39,10.0,NNE,4.6,-,N/A,,Clear,20,2013-01-08 06:15:00
1:35 AM,28.6,25.0,86,30.38,10.0,NNE,4.6,-,N/A,,Clear,20,2013-01-08 06:35:00
1:55 AM,29.1,25.7,87,30.39,10.0,Calm,Calm,-,N/A,,Clear,0,2013-01-08 06:55:00
2:15 AM,28.0,25.2,89,30.39,10.0,Calm,Calm,-,N/A,,Clear,0,2013-01-08 07:15:00
2:35 AM,27.5,25.2,91,30.38,10.0,NNE,4.6,-,N/A,,Clear,20,2013-01-08 07:35:00
2:55 AM,27.1,24.8,91,30.38,10.0,NE,3.5,-,N/A,,Clear,40,2013-01-08 07:55:00
3:15 AM,26.8,24.4,91,30.38,10.0,NNE,4.6,-,N/A,,Clear,30,2013-01-08 08:15:00
3:35 AM,27.0,24.6,91,30.38,10.0,North,3.5,-,N/A,,Clear,360,2013-01-08 08:35:00
3:55 AM,27.5,24.8,90,30.38,10.0,NNE,4.6,-,N/A,,Clear,30,2013-01-08 08:55:00
4:15 AM,28.2,25.2,88,30.38,10.0,Calm,Calm,-,N/A,,Clear,0,2013-01-08 09:15:00
4:35 AM,28.8,25.5,88,30.38,10.0,NNE,4.6,-,N/A,,Scattered Clouds,30,2013-01-08 09:35:00
4:55 AM,28.2,25.2,88,30.38,10.0,NNE,4.6,-,N/A,,Scattered Clouds,20,2013-01-08 09:55:00
5:15 AM,28.4,25.3,88,30.38,10.0,Calm,Calm,-,N/A,,Scattered Clouds,0,2013-01-08 10:15:00
5:35 AM,25.2,22.5,89,30.39,10.0,WNW,3.5,-,N/A,,Clear,290,2013-01-08 10:35:00
5:55 AM,25.7,23.9,93,30.39,10.0,NNE,3.5,-,N/A,,Clear,30,2013-01-08 10:55:00
6:15 AM,26.2,24.3,92,30.39,10.0,Calm,Calm,-,N/A,,Clear,0,2013-01-08 11:15:00
6:35 AM,25.7,23.9,93,30.40,10.0,North,4.6,-,N/A,,Clear,10,2013-01-08 11:35:00
6:55 AM,26.1,23.7,91,30.39,10.0,NNE,5.8,-,N/A,,Clear,20,2013-01-08 11:55:00
7:15 AM,26.2,24.1,92,30.40,10.0,NNE,4.6,-,N/A,,Clear,20,2013-01-08 12:15:00
7:35 AM,25.7,23.4,91,30.41,10.0,NNE,4.6,-,N/A,,Clear,30,2013-01-08 12:35:00
7:55 AM,26.1,23.9,92,30.41,10.0,NE,4.6,-,N/A,,Clear,40,2013-01-08 12:55:00
8:35 AM,28.2,26.1,92,30.43,10.0,Calm,Calm,-,N/A,,Mostly Cloudy,0,2013-01-08 13:35:00
8:55 AM,30.0,27.0,88,30.44,10.0,North,3.5,-,N/A,,Overcast,10,2013-01-08 13:55:00
9:15 AM,31.3,28.0,88,30.44,10.0,Calm,Calm,-,N/A,,Overcast,0,2013-01-08 14:15:00
9:35 AM,33.4,29.8,87,30.44,10.0,North,3.5,-,N/A,,Mostly Cloudy,10,2013-01-08 14:35:00
9:55 AM,35.1,30.7,84,30.45,10.0,North,3.5,-,N/A,,Mostly Cloudy,360,2013-01-08 14:55:00
10:15 AM,37.4,31.8,80,30.45,10.0,NE,4.6,-,N/A,,Overcast,40,2013-01-08 15:15:00
10:35 AM,39.6,32.0,74,30.46,10.0,NNE,3.5,-,N/A,,Mostly Cloudy,20,2013-01-08 15:35:00
10:55 AM,41.0,32.0,70,30.45,10.0,NNE,4.6,-,N/A,,Mostly Cloudy,20,2013-01-08 15:55:00
11:15 AM,42.1,31.6,67,30.44,10.0,Calm,Calm,-,N/A,,Overcast,0,2013-01-08 16:15:00
11:35 AM,43.5,31.6,63,30.43,10.0,NNE,4.6,-,N/A,,Mostly Cloudy,30,2013-01-08 16:35:00
11:55 AM,45.3,32.0,60,30.43,10.0,Calm,Calm,-,N/A,,Mostly Cloudy,0,2013-01-08 16:55:00
12:15 PM,46.4,31.1,55,30.42,10.0,Calm,Calm,-,N/A,,Overcast,0,2013-01-08 17:15:00
12:35 PM,46.9,32.0,56,30.41,10.0,Calm,Calm,-,N/A,,Overcast,0,2013-01-08 17:35:00
12:55 PM,47.5,32.0,55,30.40,10.0,Calm,Calm,-,N/A,,Overcast,0,2013-01-08 17:55:00
1:15 PM,47.7,32.0,55,30.39,10.0,Calm,Calm,-,N/A,,Overcast,0,2013-01-08 18:15:00
1:35 PM,47.7,32.2,55,30.39,10.0,NW,3.5,-,N/A,,Overcast,310,2013-01-08 18:35:00
1:55 PM,48.2,32.7,55,30.37,10.0,Calm,Calm,-,N/A,,Overcast,0,2013-01-08 18:55:00
2:15 PM,48.2,32.9,55,30.37,10.0,Calm,Calm,-,N/A,,Overcast,0,2013-01-08 19:15:00
2:35 PM,48.4,33.8,57,30.37,10.0,Calm,Calm,-,N/A,,Overcast,0,2013-01-08 19:35:00
2:55 PM,48.6,34.0,57,30.36,10.0,Calm,Calm,-,N/A,,Overcast,0,2013-01-08 19:55:00
3:15 PM,49.6,35.4,58,30.35,10.0,Calm,Calm,-,N/A,,Overcast,0,2013-01-08 20:15:00
3:35 PM,51.3,35.6,55,30.36,10.0,Calm,Calm,-,N/A,,Scattered Clouds,0,2013-01-08 20:35:00
3:55 PM,50.0,36.5,60,30.37,10.0,Calm,Calm,-,N/A,,Mostly Cloudy,0,2013-01-08 20:55:00
4:15 PM,50.0,36.9,61,30.37,10.0,Calm,Calm,-,N/A,,Overcast,0,2013-01-08 21:15:00
4:35 PM,50.0,37.2,62,30.36,10.0,Calm,Calm,-,N/A,,Overcast,0,2013-01-08 21:35:00
4:55 PM,49.6,37.0,62,30.36,10.0,Calm,Calm,-,N/A,,Overcast,0,2013-01-08 21:55:00
5:15 PM,49.6,37.4,63,30.36,10.0,Calm,Calm,-,N/A,,Overcast,0,2013-01-08 22:15:00
5:35 PM,49.5,38.3,65,30.37,10.0,NW,3.5,-,N/A,,Overcast,310,2013-01-08 22:35:00
5:55 PM,49.1,37.6,64,30.37,10.0,West,3.5,-,N/A,,Overcast,280,2013-01-08 22:55:00
6:15 PM,49.1,37.6,64,30.37,10.0,Calm,Calm,-,N/A,,Overcast,0,2013-01-08 23:15:00
6:35 PM,48.2,37.8,67,30.37,10.0,Calm,Calm,-,N/A,,Overcast,0,2013-01-08 23:35:00
6:55 PM,48.6,37.4,65,30.37,10.0,Calm,Calm,-,N/A,,Overcast,0,2013-01-08 23:55:00
7:35 PM,46.4,37.6,71,30.38,10.0,West,3.5,-,N/A,,Mostly Cloudy,270,2013-01-09 00:35:00
7:55 PM,46.4,38.1,73,30.38,10.0,Calm,Calm,-,N/A,,Overcast,0,2013-01-09 00:55:00
8:15 PM,48.0,37.6,67,30.40,10.0,Calm,Calm,-,N/A,,Overcast,0,2013-01-09 01:15:00
8:55 PM,44.8,37.9,77,30.39,10.0,NE,3.5,-,N/A,,Overcast,40,2013-01-09 01:55:00
9:15 PM,46.0,38.5,75,30.38,10.0,Calm,Calm,-,N/A,,Overcast,0,2013-01-09 02:15:00
9:35 PM,46.2,39.2,76,30.37,10.0,Calm,Calm,-,N/A,,Overcast,0,2013-01-09 02:35:00
9:55 PM,45.1,38.7,78,30.37,10.0,Calm,Calm,-,N/A,,Overcast,0,2013-01-09 02:55:00
10:15 PM,45.1,39.2,80,30.41,10.0,West,4.6,-,N/A,,Overcast,280,2013-01-09 03:15:00
10:35 PM,46.0,38.7,75,30.41,10.0,WNW,3.5,-,N/A,,Overcast,300,2013-01-09 03:35:00
10:55 PM,46.0,39.0,76,30.40,10.0,Calm,Calm,-,N/A,,Overcast,0,2013-01-09 03:55:00
11:15 PM,46.4,38.5,74,30.40,10.0,Calm,Calm,-,N/A,,Overcast,0,2013-01-09 04:15:00
11:35 PM,46.0,39.0,76,30.40,10.0,NNE,3.5,-,N/A,,Overcast,30,2013-01-09 04:35:00
11:55 PM,46.0,38.8,76,30.38,10.0,NNE,4.6,-,N/A,,Overcast,20,2013-01-09 04:55:00